WetterOnline ( https://www.wetteronline.ch )

Wetter aktuell Beeskow

Aktuelles Wetter: Lindenberg b. Beeskow (104m)

6-stündlich | Neueste Meldungen
Ortszeit Temperatur Wetter
Do, 22.08. 8:00 16.4° C leicht bewölkt
Do, 22.08. 2:00 17.0° C leicht bewölkt
Mi, 21.08. 20:00 18.6° C fast wolkenlos
Mi, 21.08. 14:00 21.9° C leicht bewölkt
Mi, 21.08. 8:00 14.3° C leicht bewölkt
Mi, 21.08. 2:00 15.5° C leichter Regen
Di, 20.08. 20:00 20.8° C leichter Regen
Di, 20.08. 14:00 24.5° C wolkig
Ortszeit Temperatur Wetter
Do, 22.08. 9:00 17.1° C fast wolkenlos
Do, 22.08. 8:50 17.1° C wolkenlos
Do, 22.08. 8:40 16.8° C wolkenlos
Do, 22.08. 8:30 16.3° C leicht bewölkt
Do, 22.08. 8:20 16.3° C fast wolkenlos
Do, 22.08. 8:10 16.2° C leicht bewölkt
Do, 22.08. 8:00 16.4° C leicht bewölkt
Do, 22.08. 7:30 14.9° C leicht bewölkt
Do, 22.08. 7:00 12.9° C leicht bewölkt
Do, 22.08. 6:30 14.5° C leicht bewölkt
Do, 22.08. 6:00 15.5° C leicht bewölkt
Ortszeit Relative Feuchte Sichtweite
Do, 22.08. 8:00 65% 40 km
Do, 22.08. 2:00 50% 40 km
Mi, 21.08. 20:00 53% 45 km
Mi, 21.08. 14:00 44% 30 km
Mi, 21.08. 8:00 94% 15 km
Mi, 21.08. 2:00 97% 10 km
Di, 20.08. 20:00 59% 50 km
Di, 20.08. 14:00 34% 50 km
Ortszeit Relative Feuchte Sichtweite
Do, 22.08. 9:00 63% 40 km
Do, 22.08. 8:50 63% -
Do, 22.08. 8:40 65% -
Do, 22.08. 8:30 67% 40 km
Do, 22.08. 8:20 67% -
Do, 22.08. 8:10 66% -
Do, 22.08. 8:00 65% 40 km
Do, 22.08. 7:30 69% 40 km
Do, 22.08. 7:00 77% 30 km
Do, 22.08. 6:30 69% 30 km
Do, 22.08. 6:00 63% 35 km
Ortszeit Niederschlagsmenge Niederschlagsart
Do, 22.08. 8:00 0.0 l/m2 in 12 Std. -
Do, 22.08. 2:00 0.0 l/m2 in 6 Std. -
Mi, 21.08. 20:00 0.0 l/m2 in 12 Std. -
Mi, 21.08. 14:00 0.0 l/m2 in 6 Std. -
Mi, 21.08. 8:00 4 l/m2 in 12 Std. Regen
Mi, 21.08. 2:00 2 l/m2 in 6 Std. Regen
Di, 20.08. 20:00 0.1 l/m2 in 12 Std. -
Di, 20.08. 14:00 0.0 l/m2 in 6 Std. -
Ortszeit Niederschlagsmenge Niederschlagsart
Do, 22.08. 9:00 0.0 l/m2 in 1 Std. -
Do, 22.08. 8:50 keine Meldung -
Do, 22.08. 8:40 keine Meldung -
Do, 22.08. 8:30 0.0 l/m2 in 1 Std. -
Do, 22.08. 8:20 keine Meldung -
Do, 22.08. 8:10 keine Meldung -
Do, 22.08. 8:00 0.0 l/m2 in 1 Std. -
Do, 22.08. 7:30 0.0 l/m2 in 1 Std. -
Do, 22.08. 7:00 0.0 l/m2 in 1 Std. -
Do, 22.08. 6:30 0.0 l/m2 in 1 Std. -
Do, 22.08. 6:00 0.0 l/m2 in 1 Std. -
Ortszeit Stärke Spitze Richtung
km/h Bft. km/h Grad Sektor
Do, 22.08. 8:00 7 2 18 80° O
Do, 22.08. 2:00 9 2 15 80° O
Mi, 21.08. 20:00 4 1 29 330° NW
Mi, 21.08. 14:00 9 2 26 280° W
Mi, 21.08. 8:00 7 2 18 220° SW
Mi, 21.08. 2:00 7 2 14 310° NW
Di, 20.08. 20:00 7 2 17 300° NW
Di, 20.08. 14:00 7 2 22 180° S
Ortszeit Stärke Spitze Richtung
km/h Bft. km/h Grad Sektor
Do, 22.08. 9:00 6 1 9 130° SO
Do, 22.08. 8:50 6 1 - 130° SO
Do, 22.08. 8:40 6 1 - 120° SO
Do, 22.08. 8:30 7 2 11 120° SO
Do, 22.08. 8:20 7 2 - 120° SO
Do, 22.08. 8:10 7 2 - 110° O
Do, 22.08. 8:00 7 2 11 80° O
Do, 22.08. 7:30 9 2 13 90° O
Do, 22.08. 7:00 7 2 14 90° O
Do, 22.08. 6:30 9 2 13 90° O
Do, 22.08. 6:00 9 2 15 90° O
Ortszeit Untergrenze Bedeckung Gattung
total tief tief mittel hoch
Do, 22.08. 8:00 7800 m 3/8 0/8 - - Ci
Do, 22.08. 2:00 7800 m 5/8 0/8 - - Ci
Mi, 21.08. 20:00 1800 m 1/8 1/8 Sc - -
Mi, 21.08. 14:00 1410 m 3/8 3/8 Cu - -
Mi, 21.08. 8:00 9000 m 2/8 0/8 - - Ci
Mi, 21.08. 2:00 1230 m 8/8 8/8 - Ns -
Di, 20.08. 20:00 1800 m 8/8 2/8 Sc Ns -
Di, 20.08. 14:00 1800 m 8/8 2/8 Cu As -
Ortszeit Bedeckungsgrad in Achtel und Wolkenuntergrenze
Do, 22.08. 9:00 1(7800m)
Do, 22.08. 8:50 keine Wolken
Do, 22.08. 8:40 keine Wolken
Do, 22.08. 8:30 2(7800m)
Do, 22.08. 8:20 1(7800m)
Do, 22.08. 8:10 3(7800m)
Do, 22.08. 8:00 3(7800m)
Do, 22.08. 7:30 4(8100m) 8(9000m)
Do, 22.08. 7:00 5(8700m) 7(9000m)
Do, 22.08. 6:30 5(7800m) 4(9000m) 5(9000m)
Do, 22.08. 6:00 4(7200m) 7(8100m) 7(9000m)
Ortszeit Luftdruck NN (hPa) Tendenz (hPa in 3 Std.)
Do, 22.08. 8:00 1029 + 0,5
Do, 22.08. 2:00 1029 0,0
Mi, 21.08. 20:00 1028 + 0,4
Mi, 21.08. 14:00 1027 - 0,1
Mi, 21.08. 8:00 1026 + 1,2
Mi, 21.08. 2:00 1024 + 1,1
Di, 20.08. 20:00 1021 + 0,5
Di, 20.08. 14:00 1021 - 0,3
Ortszeit Luftdruck NN (hPa) Tendenz (hPa in 3 Std.)
Do, 22.08. 9:00 1029 + 0,5
Do, 22.08. 8:50 1029 keine Meldung
Do, 22.08. 8:40 1029 keine Meldung
Do, 22.08. 8:30 1029 + 0,5
Do, 22.08. 8:20 1029 keine Meldung
Do, 22.08. 8:10 1029 keine Meldung
Do, 22.08. 8:00 1029 + 0,5
Do, 22.08. 7:30 1029 + 0,4
Do, 22.08. 7:00 1029 + 0,2
Do, 22.08. 6:30 1029 + 0,1
Do, 22.08. 6:00 1028 - 0,1
Ortszeit Schneehöhe (cm)
Do, 22.08. 8:00 0
Do, 22.08. 2:00 0
Mi, 21.08. 20:00 0
Mi, 21.08. 14:00 0
Mi, 21.08. 8:00 0
Mi, 21.08. 2:00 0
Di, 20.08. 20:00 0
Di, 20.08. 14:00 0
Ortszeit Schneehöhe (cm)
Do, 22.08. 9:00 -
Do, 22.08. 8:50 -
Do, 22.08. 8:40 -
Do, 22.08. 8:30 -
Do, 22.08. 8:20 -
Do, 22.08. 8:10 -
Do, 22.08. 8:00 0
Do, 22.08. 7:30 -
Do, 22.08. 7:00 -
Do, 22.08. 6:30 -
Do, 22.08. 6:00 -
Link zu dieser Seite / Seite empfehlen

Das Wetter in ...